Time;durP1;ratioP1;P1;durP2;ratioP2;P2;SDS_P1;SDS_P2;PMS_P1;PMS_P2;Temp;Humidity;BMP_temperature;BMP_pressure;BME280_temperature;BME280_humidity;BME280_pressure;Samples;Min_cycle;Max_cycle;Signal;HPM_P1;HPM_P2
2022/01/25 00:15:30;;;;;;;13.60;7.08;;;0.10;85.50;;;;;;1887250;76;21046;-49
2022/01/25 00:28:51;;;;;;;14.63;8.03;;;0.00;85.80;;;;;;1887107;76;21069;-49
2022/01/25 00:31:17;;;;;;;16.17;9.90;;;-0.10;85.60;;;;;;1886788;76;21155;-47
2022/01/25 00:33:52;;;;;;;16.60;9.60;;;-0.10;86.10;;;;;;1887219;75;21576;-49
2022/01/25 00:36:24;;;;;;;16.32;9.95;;;-0.10;86.80;;;;;;1887298;76;21034;-49
2022/01/25 00:38:54;;;;;;;19.48;10.35;;;0.10;87.40;;;;;;1887287;76;21151;-50
2022/01/25 00:41:25;;;;;;;15.53;9.30;;;0.30;87.50;;;;;;1887168;76;21155;-50
2022/01/25 00:43:55;;;;;;;23.67;12.63;;;0.40;87.10;;;;;;1887068;76;21073;-50
2022/01/25 00:46:24;;;;;;;16.55;9.78;;;0.50;86.90;;;;;;1887072;76;21089;-49
2022/01/25 00:48:59;;;;;;;17.60;10.00;;;0.60;86.50;;;;;;1887041;76;21155;-50
2022/01/25 00:54:14;;;;;;;15.80;9.65;;;0.60;86.60;;;;;;1887108;75;21053;-49
2022/01/25 00:56:40;;;;;;;17.00;9.35;;;0.70;86.60;;;;;;1885306;76;21062;-49
2022/01/25 00:59:12;;;;;;;21.70;11.78;;;0.80;86.80;;;;;;1885355;74;21053;-49
2022/01/25 01:01:42;;;;;;;18.02;10.78;;;0.80;86.70;;;;;;1887301;76;21138;-48
2022/01/25 01:04:11;;;;;;;21.02;12.25;;;0.90;87.00;;;;;;1887294;76;21484;-48
2022/01/25 01:06:43;;;;;;;22.48;12.23;;;1.00;86.80;;;;;;1887197;76;21026;-50
2022/01/25 01:09:13;;;;;;;22.45;12.00;;;1.00;86.60;;;;;;1887214;76;21054;-48
2022/01/25 01:11:57;;;;;;;19.55;10.08;;;1.10;86.60;;;;;;1887183;76;21103;-50
2022/01/25 01:14:36;;;;;;;18.67;10.00;;;1.10;86.40;;;;;;1886232;76;21041;-49
2022/01/25 01:17:14;;;;;;;16.05;10.20;;;1.10;86.10;;;;;;1885036;76;21100;-50
2022/01/25 01:31:06;;;;;;;20.48;11.57;;;0.40;86.50;;;;;;1887124;75;21045;-47
2022/01/25 01:36:28;;;;;;;28.00;13.58;;;0.60;87.40;;;;;;1887589;76;21066;-47
2022/01/25 01:43:52;;;;;;;18.73;10.70;;;0.90;86.90;;;;;;1887147;75;21186;-48
2022/01/25 01:46:29;;;;;;;19.02;11.38;;;1.00;86.80;;;;;;1886368;76;21033;-49
2022/01/25 01:48:58;;;;;;;21.42;11.83;;;1.00;86.80;;;;;;1884491;76;21045;-48
2022/01/25 01:51:33;;;;;;;26.12;13.60;;;1.10;86.80;;;;;;1886951;75;21033;-49
2022/01/25 01:54:04;;;;;;;23.32;10.82;;;1.20;86.80;;;;;;1887213;76;21022;-49
2022/01/25 01:56:34;;;;;;;20.08;11.57;;;1.20;86.40;;;;;;1887193;75;21053;-49
2022/01/25 01:59:06;;;;;;;16.15;9.95;;;1.20;86.50;;;;;;1887177;74;21081;-48
2022/01/25 02:01:37;;;;;;;19.87;11.00;;;1.20;86.80;;;;;;1887307;76;21042;-49
2022/01/25 02:04:11;;;;;;;19.98;10.72;;;1.30;86.80;;;;;;1887255;76;21042;-48
2022/01/25 02:06:40;;;;;;;25.08;10.28;;;1.30;87.00;;;;;;1887312;76;21721;-48
2022/01/25 02:09:11;;;;;;;18.40;10.98;;;1.40;87.00;;;;;;1887136;76;21033;-49
2022/01/25 02:11:40;;;;;;;18.90;10.45;;;1.40;87.10;;;;;;1887125;76;21464;-49
2022/01/25 02:14:13;;;;;;;20.52;10.70;;;1.50;86.50;;;;;;1887129;76;21034;-50
2022/01/25 02:17:02;;;;;;;17.67;11.53;;;1.50;86.40;;;;;;1887262;75;21018;-46
2022/01/25 02:24:51;;;;;;;18.62;10.72;;;1.50;87.00;;;;;;1887088;76;21037;-47
2022/01/25 02:27:21;;;;;;;22.10;11.68;;;1.50;86.70;;;;;;1887182;76;21034;-46
2022/01/25 02:29:51;;;;;;;23.77;10.13;;;1.50;86.90;;;;;;1887146;75;21006;-49
2022/01/25 02:32:20;;;;;;;18.95;10.35;;;1.50;86.80;;;;;;1887149;75;21091;-50
2022/01/25 02:34:49;;;;;;;21.95;12.03;;;1.60;87.10;;;;;;1887152;76;21010;-49
2022/01/25 02:37:19;;;;;;;18.80;10.58;;;1.60;87.00;;;;;;1887268;76;21034;-46
2022/01/25 02:39:48;;;;;;;21.50;11.85;;;1.60;86.90;;;;;;1887132;76;21058;-48
2022/01/25 02:42:18;;;;;;;21.07;11.65;;;1.70;87.00;;;;;;1887182;76;21097;-48
2022/01/25 02:44:48;;;;;;;20.85;11.05;;;1.70;87.00;;;;;;1887115;76;21050;-48
2022/01/25 02:50:06;;;;;;;24.32;12.15;;;1.70;86.90;;;;;;1887122;76;21041;-47
2022/01/25 02:52:36;;;;;;;20.90;12.50;;;1.70;87.00;;;;;;1887186;76;21066;-49
2022/01/25 02:55:06;;;;;;;16.15;10.98;;;1.80;87.00;;;;;;1887163;76;21085;-48
2022/01/25 02:57:35;;;;;;;21.55;10.82;;;1.80;86.70;;;;;;1887262;75;21096;-46
2022/01/25 03:00:10;;;;;;;20.95;10.93;;;1.70;86.80;;;;;;1900052;74;21094;-50
2022/01/25 03:02:39;;;;;;;21.73;11.87;;;1.70;86.90;;;;;;1905346;75;21082;-46
2022/01/25 03:05:09;;;;;;;17.95;9.40;;;1.70;87.10;;;;;;1904999;75;21615;-49
2022/01/25 03:07:43;;;;;;;21.93;11.08;;;1.80;87.20;;;;;;1905054;75;21030;-49
2022/01/25 03:10:13;;;;;;;35.08;18.25;;;1.80;87.20;;;;;;1905157;75;20971;-49
2022/01/25 03:12:50;;;;;;;41.90;23.18;;;1.80;87.40;;;;;;1905118;75;21010;-49
2022/01/25 03:18:07;;;;;;;19.25;10.58;;;1.70;86.60;;;;;;1905085;75;21084;-48
2022/01/25 03:20:34;;;;;;;17.10;10.08;;;1.60;86.50;;;;;;1900297;75;21010;-48
2022/01/25 03:25:27;;;;;;;20.23;9.83;;;1.40;86.70;;;;;;1904914;75;20975;-48
2022/01/25 03:27:57;;;;;;;18.23;9.50;;;1.30;87.20;;;;;;1905134;75;21015;-48
2022/01/25 03:30:27;;;;;;;17.65;10.10;;;1.40;87.50;;;;;;1905025;75;21139;-49
2022/01/25 03:32:57;;;;;;;16.62;10.38;;;1.40;87.70;;;;;;1904925;75;21011;-47
2022/01/25 03:35:26;;;;;;;17.07;10.05;;;1.40;87.70;;;;;;1904959;75;21034;-48
2022/01/25 03:37:55;;;;;;;18.67;10.58;;;1.40;87.50;;;;;;1904966;75;21453;-47
2022/01/25 03:40:24;;;;;;;19.12;10.60;;;1.40;86.80;;;;;;1905023;75;21410;-48
2022/01/25 03:42:55;;;;;;;20.00;11.15;;;1.30;87.00;;;;;;1905033;75;21002;-49
2022/01/25 03:45:30;;;;;;;17.92;10.55;;;1.30;87.30;;;;;;1904952;75;21002;-48
2022/01/25 03:50:32;;;;;;;17.82;10.43;;;1.20;87.60;;;;;;1869220;75;21084;-48
2022/01/25 03:53:01;;;;;;;19.32;9.90;;;1.20;87.50;;;;;;1905003;75;20986;-47
2022/01/25 03:55:31;;;;;;;17.65;10.60;;;1.20;87.70;;;;;;1905227;75;21019;-48
2022/01/25 03:58:00;;;;;;;17.52;10.82;;;1.30;87.70;;;;;;1905241;75;21092;-47
2022/01/25 04:00:31;;;;;;;17.20;10.70;;;1.30;87.60;;;;;;1919136;74;21034;-49
2022/01/25 04:03:06;;;;;;;14.60;9.80;;;1.20;87.50;;;;;;1927302;74;21166;-48
2022/01/25 04:05:49;;;;;;;15.32;9.78;;;1.20;87.70;;;;;;1926301;74;21010;-47
2022/01/25 04:08:06;;;;;;;18.30;10.78;;;1.20;87.20;;;;;;1922877;74;21085;-49
2022/01/25 04:10:35;;;;;;;18.90;9.83;;;1.10;87.30;;;;;;1927034;74;21057;-49
2022/01/25 04:13:05;;;;;;;22.75;11.33;;;1.20;87.90;;;;;;1926949;74;21010;-46
2022/01/25 04:15:34;;;;;;;16.20;10.50;;;1.20;88.00;;;;;;1927101;74;20999;-49
2022/01/25 04:18:23;;;;;;;16.23;9.88;;;1.20;88.00;;;;;;1926983;74;20998;-48
2022/01/25 04:20:35;;;;;;;18.50;9.68;;;1.30;88.00;;;;;;1922180;74;21464;-46
2022/01/25 04:25:52;;;;;;;17.27;10.48;;;1.40;88.00;;;;;;1926917;74;21014;-46
2022/01/25 04:28:21;;;;;;;17.82;9.83;;;1.40;88.50;;;;;;1927056;74;21005;-48
2022/01/25 04:30:52;;;;;;;18.32;9.20;;;1.40;87.90;;;;;;1926271;74;21001;-48
2022/01/25 04:33:26;;;;;;;18.92;9.95;;;1.50;87.80;;;;;;1927053;74;21076;-48
2022/01/25 04:35:59;;;;;;;17.10;9.00;;;1.50;87.80;;;;;;1926497;74;21006;-46
2022/01/25 04:49:44;;;;;;;21.75;12.25;;;1.60;87.50;;;;;;1924830;74;21025;-48
2022/01/25 04:52:14;;;;;;;18.27;10.35;;;1.60;87.40;;;;;;1926399;74;21002;-48
2022/01/25 04:54:54;;;;;;;12.98;9.80;;;1.60;87.40;;;;;;1926473;74;21002;-49
2022/01/25 05:00:15;;;;;;;13.72;7.72;;;1.60;87.10;;;;;;1924366;74;21503;-46
2022/01/25 05:05:25;;;;;;;10.82;6.92;;;1.50;86.80;;;;;;1905005;75;21015;-49
2022/01/25 05:07:57;;;;;;;14.05;8.10;;;1.40;87.10;;;;;;1902732;75;21378;-49
2022/01/25 05:10:20;;;;;;;11.13;6.90;;;1.40;87.30;;;;;;1904044;75;21101;-50
2022/01/25 05:13:08;;;;;;;12.05;8.35;;;1.40;87.50;;;;;;1905030;75;21488;-49
2022/01/25 05:15:37;;;;;;;13.17;7.93;;;1.40;87.10;;;;;;1902564;75;21026;-48
2022/01/25 05:18:17;;;;;;;15.32;8.98;;;1.40;87.40;;;;;;1902690;75;20995;-49
2022/01/25 05:23:31;;;;;;;10.70;7.40;;;1.50;86.20;;;;;;1905085;75;21015;-49
2022/01/25 05:26:01;;;;;;;14.30;8.23;;;1.30;85.40;;;;;;1904843;75;21022;-49
2022/01/25 05:28:30;;;;;;;12.80;8.18;;;1.20;85.60;;;;;;1905007;75;21002;-50
2022/01/25 05:30:59;;;;;;;15.63;9.40;;;1.10;86.50;;;;;;1905008;75;20995;-48
2022/01/25 05:33:29;;;;;;;14.93;8.78;;;1.10;87.10;;;;;;1904945;75;21068;-50
2022/01/25 05:35:58;;;;;;;12.10;8.00;;;1.10;87.60;;;;;;1904979;75;21077;-50
2022/01/25 05:38:28;;;;;;;15.60;8.48;;;1.30;87.70;;;;;;1905034;75;21011;-50
2022/01/25 05:41:03;;;;;;;11.30;7.47;;;1.30;86.70;;;;;;1904904;75;21054;-49
2022/01/25 05:46:18;;;;;;;15.60;7.87;;;1.30;87.30;;;;;;1905265;75;21050;-47
2022/01/25 05:48:47;;;;;;;11.15;7.42;;;1.40;87.60;;;;;;1904967;75;21465;-48
2022/01/25 05:51:16;;;;;;;12.00;7.03;;;1.50;87.70;;;;;;1905127;75;21054;-50
2022/01/25 05:53:45;;;;;;;13.70;7.60;;;1.60;87.70;;;;;;1905036;75;21007;-47
2022/01/25 05:56:16;;;;;;;13.50;8.43;;;1.70;87.50;;;;;;1905150;75;21007;-49
2022/01/25 05:58:45;;;;;;;18.57;9.23;;;1.80;87.50;;;;;;1905181;75;21426;-49
2022/01/25 06:01:15;;;;;;;16.25;10.10;;;1.80;87.30;;;;;;1915431;74;21034;-50
2022/01/25 06:03:45;;;;;;;16.35;9.45;;;1.80;86.20;;;;;;1926995;74;21026;-48
2022/01/25 06:06:14;;;;;;;7.12;4.22;;;1.80;86.80;;;;;;1927062;74;21006;-51
2022/01/25 06:08:44;;;;;;;23.73;12.30;;;1.80;84.30;;;;;;1927053;74;20974;-50
2022/01/25 06:11:14;;;;;;;13.80;8.83;;;1.70;85.60;;;;;;1926992;74;21152;-50
2022/01/25 06:13:43;;;;;;;12.60;7.80;;;1.60;86.70;;;;;;1927092;74;21021;-47
2022/01/25 06:16:13;;;;;;;17.65;8.88;;;1.60;86.90;;;;;;1927230;74;21088;-49
2022/01/25 06:18:42;;;;;;;16.17;10.68;;;1.70;86.60;;;;;;1927112;74;21010;-48
2022/01/25 06:21:12;;;;;;;25.60;13.08;;;1.70;86.80;;;;;;1927221;74;21008;-49
2022/01/25 06:23:41;;;;;;;21.57;13.05;;;1.70;86.70;;;;;;1927193;74;21080;-49
2022/01/25 06:26:10;;;;;;;14.63;9.10;;;1.80;86.80;;;;;;1927198;74;21061;-47
2022/01/25 06:28:39;;;;;;;13.08;8.85;;;1.80;86.70;;;;;;1926950;74;21523;-49
2022/01/25 06:31:08;;;;;;;13.45;9.15;;;1.90;86.20;;;;;;1926996;74;20998;-50
2022/01/25 06:33:45;;;;;;;14.58;9.28;;;1.90;86.70;;;;;;1926933;74;21037;-49
2022/01/25 06:36:12;;;;;;;16.35;9.40;;;2.00;86.40;;;;;;1925451;74;21416;-49
2022/01/25 06:38:41;;;;;;;14.90;9.45;;;2.10;86.10;;;;;;1927061;74;21041;-51
2022/01/25 06:41:12;;;;;;;15.48;9.90;;;2.10;86.70;;;;;;1927106;74;21093;-50
2022/01/25 06:43:41;;;;;;;14.13;8.85;;;2.30;86.60;;;;;;1927020;74;21013;-49
2022/01/25 06:46:10;;;;;;;15.95;9.60;;;2.30;86.60;;;;;;1926919;74;21084;-48
2022/01/25 06:48:40;;;;;;;17.62;10.13;;;2.40;86.90;;;;;;1927043;74;21072;-48
2022/01/25 06:51:09;;;;;;;17.42;9.85;;;2.50;86.80;;;;;;1927008;74;21001;-48
2022/01/25 06:53:38;;;;;;;18.48;10.55;;;2.50;86.40;;;;;;1926858;74;21061;-50
2022/01/25 06:56:07;;;;;;;22.30;13.58;;;2.60;86.50;;;;;;1926983;74;21487;-49
2022/01/25 06:58:38;;;;;;;18.02;12.95;;;2.70;86.30;;;;;;1927013;74;21072;-49
2022/01/25 07:01:08;;;;;;;19.75;11.55;;;2.80;86.30;;;;;;1923518;74;21100;-51
2022/01/25 07:03:37;;;;;;;20.37;11.95;;;2.80;86.20;;;;;;1905192;75;21049;-47
2022/01/25 07:06:06;;;;;;;18.45;11.18;;;2.90;85.70;;;;;;1905073;75;21373;-49
2022/01/25 07:08:35;;;;;;;13.95;8.95;;;2.80;82.60;;;;;;1905178;75;20999;-49
2022/01/25 07:11:04;;;;;;;18.07;10.88;;;2.80;84.40;;;;;;1905167;75;21069;-50
2022/01/25 07:13:34;;;;;;;21.05;12.73;;;2.80;85.20;;;;;;1905140;75;20995;-49
2022/01/25 07:16:03;;;;;;;22.77;15.43;;;2.80;84.30;;;;;;1905105;75;21007;-50
2022/01/25 07:18:33;;;;;;;25.10;15.10;;;2.70;83.30;;;;;;1905161;75;21606;-47
2022/01/25 07:21:02;;;;;;;25.00;15.80;;;2.60;83.70;;;;;;1905136;75;20998;-50
2022/01/25 07:23:32;;;;;;;24.85;14.40;;;2.40;82.80;;;;;;1905130;75;21019;-49
2022/01/25 07:26:01;;;;;;;27.00;17.00;;;2.40;84.20;;;;;;1905192;75;21089;-49
2022/01/25 07:28:30;;;;;;;28.27;17.42;;;2.40;84.20;;;;;;1905202;75;20983;-49
2022/01/25 07:31:00;;;;;;;29.30;17.42;;;2.50;84.40;;;;;;1905105;75;21073;-48
2022/01/25 07:33:29;;;;;;;29.15;16.82;;;2.50;82.80;;;;;;1904994;75;21003;-48
2022/01/25 07:35:59;;;;;;;23.67;16.48;;;2.50;84.40;;;;;;1905045;75;21068;-50
2022/01/25 07:38:28;;;;;;;25.75;16.12;;;2.60;84.60;;;;;;1905057;75;21116;-51
2022/01/25 07:40:57;;;;;;;24.18;14.55;;;2.60;84.10;;;;;;1905071;75;21294;-50
2022/01/25 07:43:26;;;;;;;25.65;14.13;;;2.60;83.80;;;;;;1904970;75;21077;-50
2022/01/25 07:46:03;;;;;;;27.05;15.70;;;2.60;84.40;;;;;;1904745;75;21131;-50
2022/01/25 07:48:28;;;;;;;22.58;13.53;;;2.60;84.90;;;;;;1903737;75;21530;-48
2022/01/25 07:50:58;;;;;;;24.40;15.10;;;2.60;83.50;;;;;;1905141;75;21077;-51
2022/01/25 07:53:27;;;;;;;23.00;14.43;;;2.50;83.70;;;;;;1904957;75;21007;-49
2022/01/25 07:55:56;;;;;;;22.30;14.13;;;2.60;84.80;;;;;;1905216;75;21539;-49
2022/01/25 07:58:26;;;;;;;30.77;15.58;;;2.70;84.80;;;;;;1905017;75;21015;-47
2022/01/25 08:00:55;;;;;;;29.35;15.43;;;2.80;84.20;;;;;;1905129;75;21057;-51
2022/01/25 08:03:24;;;;;;;25.57;14.63;;;2.90;84.50;;;;;;1904912;75;21031;-51
2022/01/25 08:05:53;;;;;;;29.37;17.77;;;3.00;84.60;;;;;;1904986;75;21094;-49
2022/01/25 08:08:23;;;;;;;25.45;14.90;;;3.10;84.70;;;;;;1905034;75;21382;-50
2022/01/25 08:10:52;;;;;;;26.70;15.88;;;3.20;84.80;;;;;;1905011;75;21003;-49
2022/01/25 08:13:21;;;;;;;25.37;16.15;;;3.30;84.60;;;;;;1904998;75;21072;-50
2022/01/25 08:15:50;;;;;;;26.65;16.37;;;3.40;84.60;;;;;;1905063;75;21010;-50
2022/01/25 08:18:19;;;;;;;31.02;16.27;;;3.50;84.60;;;;;;1905072;75;21475;-48
2022/01/25 08:20:48;;;;;;;28.27;16.87;;;3.50;84.70;;;;;;1904950;75;21069;-49
2022/01/25 08:23:18;;;;;;;32.08;19.95;;;3.70;84.80;;;;;;1904995;75;21461;-49
2022/01/25 08:25:47;;;;;;;28.12;16.75;;;3.80;84.80;;;;;;1904976;75;21445;-51
2022/01/25 08:28:16;;;;;;;21.70;16.00;;;3.90;84.10;;;;;;1905051;75;21330;-49
2022/01/25 08:30:45;;;;;;;24.00;14.75;;;3.90;84.30;;;;;;1905122;75;20979;-50
2022/01/25 08:33:14;;;;;;;25.92;16.55;;;4.00;84.10;;;;;;1904925;75;21003;-46
2022/01/25 08:35:44;;;;;;;22.20;15.20;;;4.10;84.20;;;;;;1905116;75;21007;-50
2022/01/25 08:38:13;;;;;;;21.10;12.98;;;4.10;83.20;;;;;;1904957;75;21018;-49
2022/01/25 08:40:43;;;;;;;17.10;10.53;;;4.20;83.40;;;;;;1905070;75;21007;-47
2022/01/25 08:43:12;;;;;;;16.75;12.03;;;4.20;82.60;;;;;;1905048;75;21007;-50
2022/01/25 08:45:42;;;;;;;21.02;13.13;;;4.10;83.50;;;;;;1904876;75;21076;-49
2022/01/25 08:48:11;;;;;;;18.92;12.07;;;4.20;83.70;;;;;;1904888;75;21072;-48
2022/01/25 08:50:41;;;;;;;18.12;11.63;;;4.40;84.30;;;;;;1904969;75;21011;-50
2022/01/25 08:53:11;;;;;;;17.05;11.53;;;4.60;83.60;;;;;;1904836;75;21003;-46
2022/01/25 08:55:41;;;;;;;21.10;13.80;;;4.80;81.80;;;;;;1905149;75;21441;-48
2022/01/25 08:58:10;;;;;;;23.77;14.43;;;4.90;83.60;;;;;;1905037;75;21002;-48
2022/01/25 09:00:40;;;;;;;24.45;15.72;;;5.00;83.30;;;;;;1905023;75;21065;-49
2022/01/25 09:03:10;;;;;;;22.25;14.80;;;5.10;82.70;;;;;;1915468;74;21045;-46
2022/01/25 09:05:39;;;;;;;23.05;13.95;;;5.10;80.30;;;;;;1927019;74;21083;-46
2022/01/25 09:08:09;;;;;;;21.60;12.98;;;5.10;80.40;;;;;;1926991;74;21045;-48
2022/01/25 09:10:38;;;;;;;21.73;13.95;;;5.00;81.20;;;;;;1927179;74;21026;-50
2022/01/25 09:13:07;;;;;;;19.70;11.78;;;4.90;81.40;;;;;;1926923;74;21002;-49
2022/01/25 09:15:37;;;;;;;26.55;13.20;;;4.90;81.20;;;;;;1927025;74;21002;-50
2022/01/25 09:18:07;;;;;;;23.25;13.32;;;4.80;79.60;;;;;;1927062;74;21006;-50
2022/01/25 09:20:36;;;;;;;19.05;12.75;;;4.80;81.10;;;;;;1927043;74;21056;-48
2022/01/25 09:23:05;;;;;;;18.20;9.95;;;4.70;81.90;;;;;;1927024;74;21063;-47
2022/01/25 09:25:35;;;;;;;19.05;11.55;;;4.70;82.10;;;;;;1926959;74;21135;-48
2022/01/25 09:28:05;;;;;;;15.93;11.00;;;4.70;82.40;;;;;;1927099;74;21444;-49
2022/01/25 09:30:34;;;;;;;19.85;12.53;;;4.70;82.60;;;;;;1927149;74;21009;-47
2022/01/25 09:33:04;;;;;;;23.27;14.45;;;4.80;82.70;;;;;;1927051;74;21076;-50
2022/01/25 09:35:33;;;;;;;10.93;7.28;;;4.90;82.70;;;;;;1927028;74;21006;-46
2022/01/25 09:38:02;;;;;;;12.73;8.00;;;4.80;80.50;;;;;;1926958;74;20997;-48
2022/01/25 09:40:32;;;;;;;14.58;9.73;;;4.90;82.10;;;;;;1927089;74;21029;-47
2022/01/25 09:43:02;;;;;;;11.53;7.20;;;4.90;82.10;;;;;;1927139;74;20998;-47
2022/01/25 09:45:31;;;;;;;3.67;2.72;;;5.10;82.20;;;;;;1927001;74;20998;-50
2022/01/25 09:48:01;;;;;;;3.80;3.00;;;5.20;80.40;;;;;;1927253;74;21067;-46
2022/01/25 09:50:30;;;;;;;4.75;4.03;;;5.10;80.00;;;;;;1927144;74;21068;-49
2022/01/25 09:53:00;;;;;;;2.77;1.75;;;5.00;81.00;;;;;;1927161;74;21076;-47
2022/01/25 09:55:32;;;;;;;5.58;4.50;;;5.00;77.90;;;;;;1927051;74;21123;-47
2022/01/25 09:58:02;;;;;;;2.77;2.50;;;4.90;79.50;;;;;;1925409;74;21460;-50
2022/01/25 10:00:33;;;;;;;2.58;1.87;;;4.90;79.00;;;;;;1927162;74;21026;-49
2022/01/25 10:03:16;;;;;;;5.17;2.22;;;4.90;78.60;;;;;;1920951;74;21124;-46
2022/01/25 10:05:44;;;;;;;4.95;3.50;;;4.90;80.20;;;;;;1886534;76;21045;-46
2022/01/25 10:08:19;;;;;;;26.75;15.03;;;4.90;79.90;;;;;;1886718;76;21002;-46
2022/01/25 10:10:57;;;;;;;5.83;2.50;;;4.90;79.70;;;;;;1887701;75;21022;-49
2022/01/25 10:13:35;;;;;;;5.72;1.92;;;5.00;79.40;;;;;;1887199;76;21209;-49
2022/01/25 10:16:09;;;;;;;4.12;2.50;;;5.00;78.60;;;;;;1887341;76;21079;-49
2022/01/25 10:18:53;;;;;;;7.03;3.80;;;4.90;78.30;;;;;;1887545;75;21089;-50
2022/01/25 10:21:24;;;;;;;4.25;3.10;;;4.80;79.00;;;;;;1887258;76;21312;-46
2022/01/25 10:24:11;;;;;;;8.33;2.80;;;4.70;79.50;;;;;;1887255;76;21018;-47
2022/01/25 10:26:43;;;;;;;27.02;12.05;;;4.70;79.50;;;;;;1887316;76;21026;-50
2022/01/25 10:29:17;;;;;;;3.42;3.12;;;4.60;80.00;;;;;;1886690;76;21115;-47
2022/01/25 10:31:49;;;;;;;4.05;3.15;;;4.50;80.40;;;;;;1887416;76;21058;-47
2022/01/25 10:34:21;;;;;;;1.87;1.77;;;4.40;80.60;;;;;;1886551;76;21669;-46
2022/01/25 10:36:52;;;;;;;3.02;2.02;;;4.40;80.60;;;;;;1887047;76;21014;-46
2022/01/25 10:39:30;;;;;;;10.10;2.08;;;4.40;81.50;;;;;;1887250;76;21041;-45
2022/01/25 10:42:07;;;;;;;6.20;3.02;;;4.50;82.10;;;;;;1887341;76;21046;-45
2022/01/25 10:44:51;;;;;;;5.60;2.85;;;4.50;82.30;;;;;;1887183;75;21421;-47
2022/01/25 10:47:39;;;;;;;7.55;5.10;;;4.60;82.20;;;;;;1887399;75;21025;-49
2022/01/25 10:50:20;;;;;;;10.45;6.20;;;4.70;81.80;;;;;;1887328;75;21323;-49
2022/01/25 10:53:04;;;;;;;9.40;4.58;;;4.70;82.10;;;;;;1887241;76;21099;-47
2022/01/25 10:55:38;;;;;;;7.72;5.78;;;4.80;81.20;;;;;;1887359;76;21049;-47
2022/01/25 10:58:08;;;;;;;7.30;4.70;;;4.80;80.00;;;;;;1887266;76;21029;-47
2022/01/25 11:00:41;;;;;;;14.00;8.15;;;4.80;81.00;;;;;;1887319;76;21100;-48
2022/01/25 11:03:11;;;;;;;9.48;5.20;;;4.90;80.00;;;;;;1887258;75;21116;-48
2022/01/25 11:05:43;;;;;;;17.50;6.47;;;4.90;80.00;;;;;;1887131;74;21070;-48
2022/01/25 11:08:15;;;;;;;7.30;4.45;;;5.00;81.00;;;;;;1887321;75;21009;-48
2022/01/25 11:10:49;;;;;;;16.67;7.05;;;5.10;81.40;;;;;;1887293;75;21037;-47
2022/01/25 11:16:02;;;;;;;10.63;5.62;;;5.40;81.30;;;;;;1887253;75;21089;-49
2022/01/25 11:18:31;;;;;;;8.53;4.40;;;5.50;81.10;;;;;;1887316;76;21088;-48
2022/01/25 11:21:03;;;;;;;9.83;3.85;;;5.50;79.10;;;;;;1887239;75;21037;-48
2022/01/25 11:23:35;;;;;;;5.85;3.35;;;5.50;80.50;;;;;;1885753;75;21045;-48
2022/01/25 11:26:10;;;;;;;10.13;6.85;;;5.60;81.30;;;;;;1887359;76;21452;-46
2022/01/25 11:28:42;;;;;;;12.23;7.83;;;5.70;81.10;;;;;;1887176;76;21150;-45
2022/01/25 11:31:19;;;;;;;9.15;4.50;;;5.80;79.20;;;;;;1887269;76;21014;-47
2022/01/25 11:33:50;;;;;;;18.73;8.43;;;5.80;78.20;;;;;;1887204;75;21026;-50
2022/01/25 11:36:22;;;;;;;17.92;9.73;;;5.70;74.90;;;;;;1887266;76;21151;-46
2022/01/25 11:38:53;;;;;;;21.65;12.18;;;5.50;76.80;;;;;;1887309;76;21088;-46
2022/01/25 11:41:24;;;;;;;21.73;13.35;;;5.40;77.70;;;;;;1887278;76;21046;-46
2022/01/25 11:44:15;;;;;;;23.45;12.82;;;5.20;77.30;;;;;;1887123;76;21034;-47
2022/01/25 11:46:46;;;;;;;25.08;16.17;;;5.00;77.40;;;;;;1887366;75;21034;-46
2022/01/25 11:49:17;;;;;;;24.50;15.08;;;4.70;76.70;;;;;;1886657;75;21035;-47
2022/01/25 11:51:51;;;;;;;20.65;13.98;;;4.60;79.00;;;;;;1887375;76;21103;-47
2022/01/25 11:54:20;;;;;;;27.20;14.93;;;4.60;78.70;;;;;;1876911;76;21089;-47
2022/01/25 11:56:49;;;;;;;22.90;12.18;;;4.70;79.20;;;;;;1887236;76;21113;-48
2022/01/25 11:59:19;;;;;;;24.43;12.63;;;4.70;79.70;;;;;;1887191;76;21030;-46
2022/01/25 12:01:50;;;;;;;22.55;13.00;;;4.80;79.60;;;;;;1887276;76;21091;-48
2022/01/25 12:04:20;;;;;;;23.40;14.33;;;4.80;79.50;;;;;;1888925;74;21115;-47
2022/01/25 12:07:12;;;;;;;20.17;13.93;;;4.70;79.30;;;;;;1896521;76;21069;-47
2022/01/25 12:09:51;;;;;;;23.70;15.15;;;4.70;80.00;;;;;;1894280;75;21045;-46
2022/01/25 12:12:17;;;;;;;25.27;14.33;;;4.70;80.50;;;;;;1896389;74;21100;-48
2022/01/25 12:14:50;;;;;;;26.80;14.98;;;4.70;81.00;;;;;;1896455;76;21029;-50
2022/01/25 12:17:30;;;;;;;19.42;12.13;;;4.70;80.70;;;;;;1896523;76;21001;-47
2022/01/25 12:20:03;;;;;;;19.02;12.88;;;4.80;79.50;;;;;;1896375;75;21085;-47
2022/01/25 12:22:41;;;;;;;14.33;8.90;;;4.80;78.00;;;;;;1896535;75;21049;-46
2022/01/25 12:25:34;;;;;;;14.63;9.35;;;4.60;77.80;;;;;;1896485;76;21135;-46
2022/01/25 12:28:11;;;;;;;14.68;10.15;;;4.50;78.70;;;;;;1893356;75;21041;-46
2022/01/25 12:30:45;;;;;;;18.85;11.28;;;4.40;79.40;;;;;;1896623;76;21088;-46
2022/01/25 12:33:23;;;;;;;19.80;12.28;;;4.40;79.60;;;;;;1896712;76;21103;-47
2022/01/25 12:36:02;;;;;;;15.20;10.28;;;4.30;77.50;;;;;;1896532;74;21057;-47
2022/01/25 12:38:49;;;;;;;18.85;11.83;;;4.00;77.10;;;;;;1896484;74;21115;-46
2022/01/25 12:41:21;;;;;;;19.80;11.33;;;3.70;77.80;;;;;;1896471;75;21099;-47
2022/01/25 12:43:58;;;;;;;20.37;11.45;;;3.50;78.50;;;;;;1896547;76;21037;-48
2022/01/25 12:46:40;;;;;;;21.57;11.57;;;3.30;78.30;;;;;;1896658;74;21041;-47
2022/01/25 12:49:16;;;;;;;21.37;11.68;;;3.10;79.70;;;;;;1896573;76;21042;-47
2022/01/25 12:51:42;;;;;;;20.32;12.30;;;3.10;80.20;;;;;;1894624;76;21093;-46
2022/01/25 12:54:14;;;;;;;13.38;8.35;;;3.20;80.60;;;;;;1896733;76;21033;-46
2022/01/25 12:56:46;;;;;;;17.05;10.25;;;3.20;79.10;;;;;;1896790;76;21037;-46
2022/01/25 12:59:21;;;;;;;17.07;10.60;;;3.10;79.50;;;;;;1896789;76;21096;-47
2022/01/25 13:01:52;;;;;;;14.60;9.33;;;3.00;79.60;;;;;;1896894;76;21060;-46
2022/01/25 13:04:21;;;;;;;16.97;9.15;;;3.00;80.50;;;;;;1896722;74;21080;-46
2022/01/25 13:06:52;;;;;;;14.93;9.20;;;3.00;81.00;;;;;;1905117;74;21037;-46
2022/01/25 13:09:28;;;;;;;11.80;5.50;;;3.20;81.30;;;;;;1905298;75;21019;-49
2022/01/25 13:17:21;;;;;;;24.12;11.55;;;3.50;81.20;;;;;;1905307;75;21022;-46
2022/01/25 13:20:01;;;;;;;23.73;13.72;;;3.50;81.10;;;;;;1905333;75;21042;-47
2022/01/25 13:22:35;;;;;;;21.37;13.05;;;3.50;80.90;;;;;;1905203;75;21009;-46
2022/01/25 13:27:49;;;;;;;22.80;13.13;;;3.50;81.40;;;;;;1905300;75;20999;-46
2022/01/25 13:33:06;;;;;;;20.68;11.55;;;3.40;81.00;;;;;;1905311;75;21023;-46
2022/01/25 13:35:40;;;;;;;23.25;13.08;;;3.30;81.30;;;;;;1905090;75;21011;-46
2022/01/25 13:38:13;;;;;;;20.60;13.03;;;3.20;81.80;;;;;;1905145;75;21099;-46
2022/01/25 13:40:54;;;;;;;22.27;12.73;;;3.20;82.30;;;;;;1905588;75;21073;-47
2022/01/25 13:46:05;;;;;;;18.20;11.55;;;3.40;82.70;;;;;;1905020;75;21081;-48
2022/01/25 13:48:34;;;;;;;19.65;10.70;;;3.50;82.70;;;;;;1905147;75;21018;-46
2022/01/25 13:51:06;;;;;;;22.55;11.45;;;3.60;82.80;;;;;;1905076;75;21003;-45
2022/01/25 13:53:37;;;;;;;15.98;10.28;;;3.70;82.90;;;;;;1905052;75;20998;-46
2022/01/25 13:56:09;;;;;;;20.05;11.70;;;3.70;82.40;;;;;;1905037;75;21073;-46
2022/01/25 13:58:44;;;;;;;19.45;12.00;;;3.70;82.30;;;;;;1905034;75;21006;-46
2022/01/25 14:01:15;;;;;;;20.00;12.33;;;3.60;82.10;;;;;;1905106;75;21018;-46
2022/01/25 14:03:47;;;;;;;23.62;13.00;;;3.50;82.00;;;;;;1905078;75;21064;-46
2022/01/25 14:06:31;;;;;;;22.20;13.83;;;3.40;82.00;;;;;;1896855;75;21073;-46
2022/01/25 14:09:28;;;;;;;26.03;13.40;;;3.30;81.80;;;;;;1890353;74;21123;-46
2022/01/25 14:25:41;;;;;;;26.12;14.73;;;2.60;83.30;;;;;;1896584;76;21045;-46
2022/01/25 14:28:14;;;;;;;23.20;13.80;;;2.60;83.50;;;;;;1896595;76;21053;-45
2022/01/25 14:30:49;;;;;;;21.52;12.98;;;2.60;84.40;;;;;;1896581;74;21072;-45
2022/01/25 14:33:23;;;;;;;23.15;12.73;;;2.60;83.70;;;;;;1896597;76;21091;-45
2022/01/25 14:35:56;;;;;;;21.12;11.08;;;2.70;83.70;;;;;;1896620;74;21005;-44
2022/01/25 14:38:31;;;;;;;18.55;11.73;;;2.80;84.30;;;;;;1895962;76;21112;-45
2022/01/25 14:41:01;;;;;;;;;;;2.90;84.20;;;;;;1899355;74;21167;-45
2022/01/25 14:43:33;;;;;;;16.62;8.65;;;3.00;84.90;;;;;;1896616;76;20205;-45
2022/01/25 14:46:15;;;;;;;18.17;8.33;;;3.10;84.70;;;;;;1896578;76;21042;-45
2022/01/25 14:48:45;;;;;;;8.78;6.25;;;3.10;84.90;;;;;;1896647;75;21561;-45
2022/01/25 14:51:15;;;;;;;8.18;5.15;;;3.10;85.00;;;;;;1896562;76;21057;-45
2022/01/25 14:53:45;;;;;;;8.48;5.17;;;3.10;84.40;;;;;;1896655;76;21026;-47
2022/01/25 14:56:15;;;;;;;8.10;4.70;;;3.10;84.80;;;;;;1896628;76;21091;-45
2022/01/25 15:01:24;;;;;;;6.00;3.90;;;3.20;85.00;;;;;;1896496;75;21108;-45
2022/01/25 15:03:53;;;;;;;5.55;4.20;;;3.20;85.20;;;;;;1896486;76;21103;-45
2022/01/25 15:06:22;;;;;;;8.08;4.25;;;3.20;85.30;;;;;;1893544;74;21057;-46